Date,TemperatureHighF,TemperatureAvgF,TemperatureLowF,DewpointHighF,DewpointAvgF,DewpointLowF,HumidityHigh,HumidityAvg,HumidityLow,PressureMaxIn,PressureMinIn,WindSpeedMaxMPH,WindSpeedAvgMPH,GustSpeedMaxMPH,PrecipitationSumIn
2012-1-1,29.0,22.0,14.0,24.0,16.0,7.0,94,77,69,0.00,40.00,30,22,42,0.00
2012-1-2,15.0,9.3,1.0,9.0,5.5,-1.0,92,84,76,0.00,40.00,20,-13,27,0.00
2012-1-3,40.0,21.7,8.0,31.0,17.3,6.0,97,83,71,0.00,40.00,21,14,34,0.00
2012-1-4,40.0,27.3,20.0,31.0,24.9,19.0,99,91,67,0.00,40.00,13,6,17,0.00
2012-1-5,48.0,37.2,21.0,34.0,29.9,21.0,99,76,54,0.00,40.00,21,11,30,0.00
2012-1-6,39.0,33.8,25.0,35.0,29.2,23.0,99,84,70,0.00,40.00,26,17,39,0.00
2012-1-7,37.0,28.6,21.0,29.0,26.2,21.0,99,91,75,0.00,40.00,14,6,21,0.00
2012-1-8,38.0,30.5,24.0,32.0,27.1,22.0,99,87,62,0.00,40.00,21,8,31,0.00
2012-1-9,46.0,36.6,29.0,33.0,29.8,24.0,93,76,59,0.00,40.00,22,10,30,0.00
2012-1-10,43.0,37.4,32.0,38.0,34.1,30.0,96,88,78,0.00,40.00,18,8,29,0.00
2012-1-11,35.0,15.0,6.0,35.0,10.5,2.0,99,82,65,0.00,40.00,32,19,42,0.00
2012-1-12,6.0,1.5,-5.0,3.0,-1.3,-7.0,94,88,80,0.00,40.00,24,16,37,0.00
2012-1-13,13.0,3.0,-7.0,12.0,-0.3,-9.0,94,87,76,0.00,40.00,12,6,18,0.00
2012-1-14,32.0,22.1,13.0,29.0,20.9,12.0,99,95,86,0.00,40.00,12,6,17,0.00
2012-1-15,33.0,26.6,19.0,28.0,23.2,14.0,99,88,71,0.00,40.00,23,11,34,0.00
2012-1-16,15.0,6.8,-1.0,11.0,2.4,-6.0,88,82,76,0.00,40.00,21,15,30,0.00
2012-1-17,1.0,-5.0,-10.0,-6.0,-9.5,-13.0,87,81,71,0.00,40.00,12,7,20,0.00
2012-1-18,-1.0,-6.5,-17.0,-5.0,-10.0,-21.0,89,84,81,0.00,40.00,22,12,33,0.00
2012-1-19,0.0,-9.9,-18.0,-11.0,-16.4,-22.0,83,73,56,0.00,40.00,19,10,24,0.00
2012-1-20,7.0,-1.9,-9.0,-2.0,-7.6,-13.0,85,77,63,0.00,40.00,11,6,14,0.00
2012-1-21,19.0,9.0,-5.0,15.0,4.9,-8.0,87,83,77,0.00,40.00,25,-9,37,0.00
2012-1-22,28.0,24.5,19.0,26.0,23.5,16.0,99,96,87,0.00,40.00,17,7,24,0.00
2012-1-23,25.0,15.9,7.0,25.0,14.7,5.0,99,95,86,0.00,40.00,18,11,25,0.00
2012-1-24,22.0,12.4,2.0,20.0,6.3,-99.9,99,89,87,0.00,40.00,14,-38,21,0.00
2012-1-25,31.0,23.4,14.0,31.0,20.7,-99.9,99,96,94,0.00,40.00,24,-8,37,0.00
2012-1-26,38.0,30.3,22.0,27.0,22.7,16.0,97,75,45,0.00,40.00,21,11,29,0.00
2012-1-27,27.0,23.0,20.0,26.0,13.5,-99.9,99,77,65,0.00,40.00,24,-28,32,0.00
2012-1-28,22.0,17.9,8.0,17.0,13.1,3.0,89,81,70,0.00,40.00,18,12,25,0.00
2012-1-29,17.0,6.0,-6.0,16.0,0.8,-99.9,96,85,77,0.00,40.00,16,-14,28,0.00
2012-1-30,32.0,23.9,17.0,31.0,19.4,-99.9,99,89,78,0.00,40.00,14,-14,26,0.00
2012-1-31,32.0,28.6,24.0,32.0,27.8,24.0,99,97,89,0.00,40.00,17,9,24,0.00
2012-2-1,40.0,26.7,20.0,33.0,20.2,-99.9,99,89,66,0.00,40.00,11,-38,15,0.00
2012-2-2,30.0,21.0,12.0,30.0,18.5,-99.9,99,97,98,0.00,40.00,7,-41,9,0.00
2012-2-3,28.0,22.9,20.0,27.0,19.8,-99.9,99,96,99,0.00,40.00,6,-26,9,0.00
2012-2-4,33.0,25.6,22.0,32.0,20.7,-99.9,99,93,85,0.00,40.00,13,-37,18,0.00
2012-2-5,43.0,30.7,21.0,33.0,27.3,21.0,99,88,64,0.00,40.00,12,8,18,0.00
2012-2-6,34.0,23.3,11.0,31.0,21.4,7.0,99,93,85,0.00,40.00,24,-8,35,0.00
2012-2-7,17.0,6.9,-2.0,8.0,2.4,-4.0,92,83,52,0.00,40.00,15,8,22,0.00
2012-2-8,33.0,19.2,8.0,20.0,12.5,4.0,91,76,54,0.00,40.00,16,9,21,0.00
2012-2-9,24.0,14.5,-1.0,19.0,8.4,-8.0,90,77,59,0.00,40.00,24,14,35,0.00
2012-2-10,4.0,-4.9,-12.0,-5.0,-10.6,-16.0,84,76,64,0.00,40.00,21,14,33,0.00
2012-2-11,11.0,1.0,-7.0,0.0,-5.4,-11.0,83,75,61,0.00,40.00,14,9,18,0.00
2012-2-12,30.0,14.3,2.0,7.0,2.4,-3.0,82,62,36,0.00,40.00,14,-14,19,0.00
2012-2-13,34.0,22.3,12.0,20.0,14.3,5.0,86,72,56,0.00,40.00,14,8,18,0.00
2012-2-14,36.0,24.7,11.0,28.0,21.0,11.0,99,87,58,0.00,40.00,7,3,10,0.00
2012-2-15,35.0,29.0,24.0,32.0,27.4,22.0,99,94,85,0.00,40.00,16,7,22,0.00
2012-2-16,36.0,26.7,19.0,28.0,23.6,18.0,98,89,61,0.00,40.00,11,6,15,0.00
2012-2-17,28.0,24.3,18.0,26.0,22.1,18.0,99,91,79,0.00,40.00,12,8,17,0.00
2012-2-18,38.0,27.9,16.0,24.0,21.2,15.0,96,78,52,0.00,40.00,12,8,19,0.00
2012-2-19,40.0,31.3,22.0,30.0,24.4,20.0,93,77,57,0.00,40.00,14,9,21,0.00
2012-2-20,38.0,33.3,30.0,34.0,30.5,27.0,99,90,73,0.00,40.00,16,8,22,0.00
2012-2-21,33.0,29.0,24.0,33.0,27.2,19.0,99,93,83,0.00,40.00,24,12,32,0.00
2012-2-22,32.0,20.9,11.0,25.0,18.6,10.0,99,91,73,0.00,40.00,7,3,10,0.00
2012-2-23,35.0,21.0,6.0,31.0,19.6,6.0,99,95,69,0.00,40.00,21,6,26,0.00
2012-2-24,20.0,14.1,4.0,17.0,10.4,2.0,95,85,76,0.00,40.00,21,12,27,0.00
2012-2-25,19.0,9.6,-2.0,13.0,5.3,-3.0,94,83,66,0.00,40.00,13,6,21,0.00
2012-2-26,23.0,19.5,13.0,22.0,18.9,11.0,99,97,78,0.00,40.00,24,17,35,0.00
2012-2-27,13.0,7.0,-3.0,11.0,1.7,-5.0,96,80,57,0.00,40.00,18,8,29,0.00
2012-2-28,33.0,19.9,8.0,24.0,15.9,7.0,98,85,67,0.00,40.00,11,6,16,0.00
2012-2-29,31.0,25.6,24.0,28.0,24.7,23.0,99,96,90,0.00,40.00,19,14,26,0.00
2012-3-1,34.0,26.5,22.0,31.0,21.3,-99.9,99,92,84,0.00,40.00,11,-79,17,0.00
2012-3-2,28.0,23.0,14.0,27.0,22.5,13.0,99,97,92,0.00,40.00,27,12,37,0.00
2012-3-3,14.0,8.7,4.0,13.0,6.2,2.0,95,89,78,0.00,40.00,23,13,31,0.00
2012-3-4,22.0,10.4,1.0,16.0,7.5,0.0,96,89,72,0.00,40.00,7,3,10,0.00
2012-3-5,35.0,24.9,10.0,31.0,23.2,9.0,99,93,80,0.00,40.00,20,12,29,0.00
2012-3-6,39.0,30.6,26.0,33.0,24.7,-99.9,99,90,77,0.00,40.00,21,-32,26,0.00
2012-3-7,30.0,21.0,15.0,30.0,19.2,13.0,99,92,86,0.00,40.00,25,16,33,0.00
2012-3-8,29.0,19.3,7.0,27.0,14.8,2.0,99,85,60,0.00,40.00,28,13,41,0.00
2012-3-9,29.0,17.5,5.0,22.0,9.8,1.0,83,72,58,0.00,40.00,22,12,38,0.00
2012-3-10,50.0,38.5,27.0,41.0,32.8,25.0,98,81,56,0.00,40.00,17,8,27,0.00
2012-3-11,57.0,47.2,33.0,50.0,41.7,33.0,99,82,68,0.00,40.00,20,12,32,0.00
2012-3-12,53.0,43.2,38.0,46.0,35.5,-99.9,99,85,56,0.00,40.00,20,-32,28,0.00
2012-3-13,60.0,44.5,32.0,43.0,35.1,31.0,97,72,45,0.00,40.00,17,10,29,0.00
2012-3-14,53.0,47.7,40.0,49.0,33.8,25.0,97,62,35,0.00,40.00,18,10,29,0.00
2012-3-15,59.0,46.1,34.0,36.0,30.7,27.0,88,57,34,0.00,40.00,15,6,22,0.00
2012-3-16,72.0,53.5,36.0,51.0,41.0,31.0,88,64,45,0.00,40.00,21,12,32,0.00
2012-3-17,69.0,57.7,42.0,61.0,51.5,42.0,99,81,57,0.00,40.00,12,6,19,0.00
2012-3-18,72.0,62.8,54.0,62.0,57.7,53.0,99,86,63,0.00,40.00,21,13,39,0.00
2012-3-19,73.0,65.6,58.0,63.0,59.1,52.0,92,80,69,0.00,40.00,22,17,38,0.00
2012-3-20,58.0,49.1,39.0,53.0,34.8,-99.9,89,63,41,0.00,40.00,12,-40,21,0.00
2012-3-21,67.0,50.9,38.0,43.0,36.2,31.0,86,60,33,0.00,40.00,12,8,17,0.00
2012-3-22,69.0,53.0,36.0,58.0,44.0,-99.9,97,76,54,0.00,40.00,11,-4,17,0.00
2012-3-23,59.0,55.8,53.0,58.0,55.6,53.0,99,99,97,0.00,40.00,7,3,9,0.00
2012-3-24,56.0,42.1,33.0,56.0,40.2,28.0,99,93,83,0.00,40.00,20,10,28,0.00
2012-3-25,40.0,32.6,28.0,28.0,22.9,19.0,83,68,49,0.00,40.00,14,10,21,0.00
2012-3-26,51.0,39.8,31.0,31.0,26.8,23.0,80,61,40,0.00,40.00,26,14,45,0.00
2012-3-27,48.0,42.4,37.0,45.0,38.9,30.0,99,88,59,0.00,40.00,23,16,37,0.00
2012-3-28,44.0,37.9,33.0,37.0,34.6,32.0,99,89,69,0.00,40.00,14,6,22,0.00
2012-3-29,41.0,38.1,35.0,41.0,37.5,34.0,99,98,92,0.00,40.00,18,8,31,0.00
2012-3-30,54.0,44.2,38.0,47.0,41.6,37.0,99,91,72,0.00,40.00,16,5,22,0.00
2012-3-31,66.0,54.9,47.0,51.0,44.2,38.0,99,73,36,0.00,40.00,19,10,29,0.00
2012-4-1,71.0,57.3,47.0,49.0,41.5,-99.9,99,62,35,0.00,40.00,19,-11,32,0.00
2012-4-2,56.0,49.4,43.0,49.0,43.3,37.0,99,80,56,0.00,40.00,19,10,29,0.00
2012-4-3,59.0,45.6,33.0,37.0,31.5,25.0,93,63,28,0.00,40.00,14,8,21,0.00
2012-4-4,62.0,47.5,30.0,34.0,28.3,23.0,99,55,22,0.00,40.00,10,5,14,0.00
2012-4-5,65.0,50.4,38.0,33.0,30.3,28.0,69,49,25,0.00,40.00,15,9,24,0.00
2012-4-6,65.0,53.1,39.0,36.0,31.8,29.0,68,46,31,0.00,40.00,23,15,37,0.00
2012-4-7,55.0,47.9,38.0,45.0,32.6,27.0,86,57,38,0.00,40.00,32,20,43,0.00
2012-4-8,53.0,42.9,33.0,37.0,27.7,21.0,88,59,31,0.00,40.00,30,-27,41,0.00
2012-4-9,38.0,32.5,28.0,24.0,20.0,17.0,75,61,50,0.00,40.00,22,14,32,0.00
2012-4-10,36.0,28.8,23.0,23.0,18.9,16.0,75,67,57,0.00,40.00,17,12,23,0.00
2012-4-11,51.0,35.1,20.0,24.0,21.5,19.0,99,62,34,0.00,40.00,6,3,12,0.00
2012-4-12,67.0,48.8,30.0,32.0,25.6,17.0,74,45,25,0.00,40.00,17,10,28,0.00
2012-4-13,56.0,48.7,46.0,47.0,41.8,31.0,99,80,41,0.00,40.00,15,10,24,0.00
2012-4-14,68.0,51.9,41.0,46.0,40.2,-99.9,99,74,29,0.00,40.00,15,7,24,0.00
2012-4-15,55.0,47.2,35.0,45.0,41.6,31.0,93,81,60,0.00,40.00,27,15,41,0.00
2012-4-16,38.0,32.8,27.0,31.0,21.5,16.0,91,65,41,0.00,40.00,24,17,34,0.00
2012-4-17,58.0,42.7,27.0,50.0,31.8,17.0,95,68,45,0.00,40.00,17,10,27,0.00
2012-4-18,51.0,44.9,36.0,50.0,37.7,30.0,99,79,45,0.00,40.00,22,11,34,0.00
2012-4-19,55.0,45.5,38.0,38.0,33.5,19.0,90,67,39,0.00,40.00,14,5,20,0.00
2012-4-20,54.0,44.6,36.0,33.0,23.3,17.0,59,43,33,0.00,40.00,10,5,16,0.00
2012-4-21,51.0,44.6,38.0,48.0,39.1,-99.9,99,86,63,0.00,40.00,20,10,27,0.00
2012-4-22,63.0,43.5,30.0,42.0,33.8,30.0,99,76,31,0.00,40.00,14,5,18,0.00
2012-4-23,76.0,53.1,37.0,40.0,36.5,32.0,92,60,25,0.00,40.00,14,6,24,0.00
2012-4-24,76.0,59.3,43.0,42.0,39.1,36.0,76,51,29,0.00,40.00,14,10,24,0.00
2012-4-25,65.0,55.8,45.0,47.0,41.2,31.0,74,59,45,0.00,40.00,25,15,35,0.00
2012-4-26,56.0,42.0,29.0,31.0,26.5,24.0,85,58,32,0.00,40.00,21,11,30,0.00
2012-4-27,56.0,47.6,42.0,39.0,31.5,26.0,76,55,38,0.00,40.00,17,-31,27,0.00
2012-4-28,57.0,48.0,43.0,43.0,33.2,-99.9,98,61,38,0.00,40.00,19,11,27,0.00
2012-4-29,47.0,45.2,44.0,45.0,42.1,40.0,91,89,83,0.00,40.00,16,11,27,0.00
2012-4-30,69.0,63.6,60.0,41.0,38.6,36.0,50,41,31,0.00,40.00,10,8,18,0.00
2012-5-1,71.0,59.5,50.0,60.0,51.1,41.0,95,74,50,0.00,40.00,25,9,40,0.00
2012-5-2,71.0,57.9,46.0,54.0,45.1,32.0,99,71,24,0.00,40.00,22,7,34,0.00
2012-5-3,66.0,54.1,44.0,52.0,45.1,40.0,99,76,42,0.00,40.00,16,10,29,0.00
2012-5-4,59.0,51.8,44.0,49.0,45.9,40.0,95,81,67,0.00,40.00,17,9,24,0.00
2012-5-5,73.0,59.8,50.0,52.0,47.1,-99.9,91,67,43,0.00,40.00,12,6,20,0.00
2012-5-6,72.0,60.1,53.0,55.0,45.9,32.0,96,67,23,0.00,40.00,20,8,29,0.00
2012-5-7,61.0,53.7,49.0,53.0,46.0,37.0,99,77,48,0.00,40.00,27,18,37,0.00
2012-5-8,55.0,50.3,46.0,49.0,45.1,41.0,99,84,61,0.00,40.00,20,13,29,0.00
2012-5-9,68.0,53.6,37.0,47.0,39.0,35.0,99,65,30,0.00,40.00,14,6,25,0.00
2012-5-10,81.0,65.7,49.0,47.0,43.5,36.0,79,48,29,0.00,40.00,35,14,51,0.00
2012-5-11,63.0,54.8,46.0,50.0,35.1,21.0,99,55,21,0.00,40.00,24,16,40,0.00
2012-5-12,74.0,57.6,41.0,34.0,27.6,-99.9,64,37,18,0.00,40.00,24,12,39,0.00
2012-5-13,82.0,67.1,52.0,42.0,35.4,30.0,50,34,18,0.00,40.00,26,15,35,0.00
2012-5-14,85.0,69.4,50.0,46.0,41.3,35.0,72,40,19,0.00,40.00,30,6,54,0.00
2012-5-15,68.0,57.3,49.0,42.0,38.4,31.0,72,51,29,0.00,40.00,30,15,54,0.00
2012-5-16,53.0,45.6,39.0,35.0,30.4,28.0,67,56,43,0.00,40.00,9,3,15,0.00
2012-5-17,89.0,81.5,72.0,55.0,52.2,46.0,51,37,32,0.00,40.00,18,9,30,0.00
2012-5-18,80.0,75.5,72.0,58.0,57.5,53.0,61,54,47,0.00,40.00,6,3,11,0.00
2012-5-22,86.0,80.0,68.0,58.0,55.0,51.0,58,43,35,0.00,40.00,18,12,52,0.00
2012-5-23,74.0,67.5,58.0,66.0,54.2,45.0,99,66,35,0.00,40.00,19,11,32,0.00
2012-5-24,67.0,58.4,49.0,52.0,45.2,39.0,94,64,41,0.00,40.00,19,11,27,0.00
2012-5-25,56.0,50.1,39.0,44.0,38.1,35.0,95,65,48,0.00,40.00,19,10,27,0.00
2012-5-26,62.0,51.4,41.0,47.0,42.5,36.0,99,75,51,0.00,40.00,16,10,26,0.00
2012-5-27,66.0,57.7,52.0,64.0,55.9,45.0,99,94,65,0.00,40.00,24,13,35,0.00
2012-5-28,61.0,55.9,52.0,56.0,49.4,41.0,99,81,56,0.00,40.00,22,10,29,0.00
2012-5-29,51.0,48.0,42.0,49.0,42.6,37.0,99,83,62,0.00,40.00,23,14,34,0.00
2012-5-30,66.0,51.1,34.0,42.0,35.2,31.0,99,62,30,0.00,40.00,9,3,13,0.00
2012-5-31,74.0,58.6,43.0,47.0,39.7,34.0,98,56,25,0.00,40.00,10,4,13,0.00
2012-6-1,68.0,60.0,52.0,54.0,45.9,39.0,87,61,39,0.00,40.00,16,8,24,0.00
2012-6-2,81.0,64.7,45.0,55.0,46.2,-99.9,99,61,27,0.00,40.00,12,4,18,0.00
2012-6-3,79.0,67.2,61.0,63.0,54.5,44.0,99,66,45,0.00,40.00,13,8,22,0.00
2012-6-4,85.0,71.0,52.0,59.0,49.1,44.0,99,53,27,0.00,40.00,10,-16,16,0.00
2012-6-5,90.0,76.8,60.0,56.0,52.3,48.0,79,45,30,0.00,40.00,10,4,15,0.00
2012-6-6,88.0,75.3,60.0,61.0,56.9,55.0,90,56,36,0.00,40.00,11,5,20,0.00
2012-6-7,85.0,73.7,65.0,68.0,64.1,56.0,99,74,50,0.00,40.00,21,7,35,0.00
2012-6-8,80.0,70.3,63.0,65.0,60.8,55.0,99,75,43,0.00,40.00,19,10,24,0.00
2012-6-9,92.0,73.9,61.0,70.0,58.1,-99.9,96,67,40,0.00,40.00,23,-11,39,0.00
2012-6-10,75.0,64.8,57.0,70.0,62.4,57.0,99,92,75,0.00,40.00,22,8,30,0.00
2012-6-11,62.0,54.2,46.0,59.0,50.9,43.0,99,89,64,0.00,40.00,30,16,44,0.00
2012-6-12,72.0,56.4,38.0,48.0,43.4,38.0,99,67,41,0.00,40.00,13,6,21,0.00
2012-6-13,79.0,67.3,57.0,59.0,53.5,47.0,79,62,47,0.00,40.00,22,12,30,0.00
2012-6-14,79.0,68.7,60.0,65.0,59.0,53.0,99,75,42,0.00,40.00,26,13,35,0.00
2012-6-15,82.0,70.9,58.0,60.0,55.3,49.0,98,63,33,0.00,40.00,14,7,21,0.00
2012-6-16,70.0,64.5,58.0,63.0,55.8,-99.9,99,77,54,0.00,40.00,23,10,34,0.00
2012-6-17,76.0,66.3,55.0,66.0,56.9,52.0,99,74,46,0.00,40.00,13,7,19,0.00
2012-6-18,74.0,68.4,60.0,66.0,58.2,52.0,99,73,47,0.00,40.00,22,12,33,0.00
2012-6-19,66.0,59.1,53.0,59.0,54.7,52.0,98,86,72,0.00,40.00,13,7,18,0.00
2012-6-20,72.0,61.7,57.0,63.0,58.0,55.0,99,89,56,0.00,40.00,14,7,19,0.00
2012-6-21,72.0,62.4,52.0,59.0,54.9,51.0,99,79,49,0.00,40.00,13,8,23,0.00
2012-6-22,80.0,66.7,52.0,58.0,52.2,46.0,99,66,34,0.00,40.00,7,4,15,0.00
2012-6-23,80.0,70.7,61.0,71.0,61.3,53.0,94,73,60,0.00,40.00,14,6,20,0.00
2012-6-24,76.0,65.4,53.0,58.0,51.9,45.0,81,63,43,0.00,40.00,12,8,20,0.00
2012-6-25,82.0,70.0,53.0,60.0,54.9,48.0,84,61,45,0.00,40.00,12,-14,22,0.00
2012-6-26,83.0,74.0,63.0,68.0,61.4,54.0,80,66,56,0.00,40.00,19,12,29,0.00
2012-6-27,87.0,75.1,66.0,74.0,61.4,47.0,89,66,31,0.00,40.00,23,9,31,0.00
2012-6-28,85.0,72.4,58.0,57.0,53.4,48.0,90,55,29,0.00,40.00,22,12,35,0.00
2012-6-29,85.0,73.1,58.0,61.0,56.8,54.0,95,61,37,0.00,40.00,13,7,21,0.00
2012-6-30,87.0,76.3,62.0,65.0,61.5,57.0,94,63,40,0.00,40.00,9,-24,15,0.00
2012-7-1,95.0,80.8,67.0,74.0,68.7,66.0,99,70,43,0.00,40.00,9,4,14,0.00
2012-7-2,91.0,81.7,72.0,80.0,75.4,72.0,99,83,61,0.00,40.00,9,5,16,0.00
2012-7-3,92.0,79.4,67.0,76.0,66.3,61.0,99,69,37,0.00,40.00,8,4,12,0.00
2012-7-4,79.0,74.4,71.0,78.0,71.9,67.0,98,92,75,0.00,40.00,17,8,28,0.00
2012-7-5,85.0,78.8,72.0,66.0,60.3,54.0,83,56,37,0.00,40.00,9,6,14,0.00
2012-7-6,77.0,68.7,61.0,67.0,64.0,60.0,99,86,61,0.00,40.00,13,6,19,0.00
2012-7-7,86.0,72.7,59.0,66.0,61.8,58.0,99,73,39,0.00,40.00,7,4,12,0.00
2012-7-8,85.0,75.6,65.0,69.0,62.9,56.0,99,69,39,0.00,40.00,10,5,14,0.00
2012-7-9,87.0,74.8,62.0,65.0,62.6,60.0,98,69,43,0.00,40.00,11,3,16,0.00
2012-7-10,88.0,77.9,64.0,67.0,62.3,58.0,99,63,37,0.00,40.00,9,4,16,0.00
2012-7-11,91.0,80.4,69.0,68.0,65.2,63.0,87,62,43,0.00,40.00,17,12,29,0.00
2012-7-12,85.0,75.4,69.0,74.0,68.9,64.0,99,82,63,0.00,40.00,17,8,34,0.00
2012-7-13,87.0,76.0,66.0,73.0,67.6,63.0,99,78,49,0.00,40.00,11,6,17,0.00
2012-7-14,91.0,78.4,65.0,71.0,66.9,63.0,99,72,40,0.00,40.00,8,-17,12,0.00
2012-7-15,86.0,74.7,67.0,72.0,67.3,62.0,98,79,59,0.00,40.00,14,7,27,0.00
2012-7-16,80.0,74.6,68.0,74.0,70.0,66.0,98,86,68,0.00,40.00,17,12,29,0.00
2012-7-17,85.0,73.8,65.0,67.0,64.3,59.0,99,76,44,0.00,40.00,12,6,19,0.00
2012-7-18,89.0,76.0,64.0,71.0,63.5,59.0,99,70,37,0.00,40.00,9,5,14,0.00
2012-7-19,89.0,76.6,66.0,77.0,70.0,62.0,99,82,51,0.00,40.00,14,8,22,0.00
2012-7-20,88.0,81.6,74.0,77.0,71.5,63.0,98,73,50,0.00,40.00,14,8,20,0.00
2012-7-21,90.0,76.5,62.0,66.0,58.8,54.0,97,59,30,0.00,40.00,9,4,16,0.00
2012-7-22,93.0,79.8,66.0,78.0,66.0,60.0,91,65,38,0.00,40.00,14,8,22,0.00
2012-7-23,82.0,72.1,61.0,68.0,63.9,60.0,99,78,51,0.00,40.00,11,6,16,0.00
2012-7-24,90.0,74.5,58.0,76.0,62.5,57.0,99,71,38,0.00,40.00,14,6,21,0.00
2012-7-25,85.0,73.3,65.0,73.0,64.8,53.0,99,78,40,0.00,40.00,21,8,35,0.00
2012-7-26,73.0,66.0,60.0,64.0,61.1,59.0,98,85,64,0.00,40.00,20,10,29,0.00
2012-7-27,80.0,67.6,52.0,60.0,54.9,52.0,99,70,38,0.00,40.00,9,4,15,0.00
2012-7-28,86.0,77.2,64.0,70.0,61.4,57.0,85,60,44,0.00,40.00,14,8,21,0.00
2012-7-29,90.0,78.7,68.0,72.0,69.2,67.0,99,75,52,0.00,40.00,15,9,23,0.00
2012-7-30,85.0,74.2,60.0,66.0,62.2,60.0,99,70,44,0.00,40.00,12,6,19,0.00
2012-7-31,88.0,77.0,64.0,69.0,65.0,62.0,94,69,46,0.00,40.00,16,7,24,0.00
2012-8-1,83.0,75.4,67.0,70.0,64.2,59.0,99,70,46,0.00,40.00,14,8,21,0.00
2012-8-2,83.0,71.2,58.0,65.0,59.5,56.0,99,71,42,0.00,40.00,10,-17,17,0.00
2012-8-3,82.0,70.9,65.0,67.0,64.3,58.0,99,82,57,0.00,40.00,18,9,51,0.00
2012-8-4,69.0,62.2,58.0,64.0,59.7,56.0,99,92,64,0.00,40.00,17,10,27,0.00
2012-8-7,79.0,71.3,63.0,68.0,59.6,54.0,99,71,43,0.00,40.00,6,3,11,0.00
2012-8-8,82.0,69.9,62.0,66.0,61.3,56.0,99,78,42,0.00,40.00,14,5,21,0.00
2012-8-9,72.0,64.0,55.0,64.0,56.6,54.0,99,79,53,0.00,40.00,16,7,21,0.00
2012-8-10,77.0,66.4,55.0,58.0,53.9,50.0,99,68,40,0.00,40.00,10,6,16,0.00
2012-8-11,73.0,65.6,57.0,61.0,55.0,-99.9,91,72,54,0.00,40.00,12,7,22,0.00
2012-8-12,75.0,66.9,62.0,65.0,62.3,60.0,99,86,65,0.00,40.00,12,6,18,0.00
2012-8-13,77.0,64.8,52.0,62.0,52.0,-99.9,99,70,38,0.00,40.00,15,-3,21,0.00
2012-8-14,81.0,67.2,51.0,60.0,53.7,50.0,99,67,36,0.00,40.00,9,3,14,0.00
2012-8-15,72.0,64.2,59.0,67.0,58.2,53.0,99,82,64,0.00,40.00,23,12,37,0.00
2012-8-16,69.0,60.9,51.0,54.0,46.5,41.0,89,62,38,0.00,40.00,26,15,35,0.00
2012-8-17,77.0,63.1,46.0,50.0,46.1,45.0,97,60,32,0.00,40.00,12,6,21,0.00
2012-8-18,79.0,64.4,54.0,59.0,52.1,45.0,96,67,40,0.00,40.00,20,7,29,0.00
2012-8-19,76.0,62.1,48.0,55.0,46.1,38.0,99,64,28,0.00,40.00,9,4,12,0.00
2012-8-20,81.0,65.1,47.0,51.0,46.7,42.0,95,57,30,0.00,40.00,9,2,12,0.00
2012-8-21,88.0,72.1,55.0,58.0,53.7,49.0,84,56,34,0.00,40.00,16,8,26,0.00
2012-8-22,92.0,74.3,57.0,62.0,57.3,54.0,96,61,30,0.00,40.00,11,6,18,0.00
2012-8-23,91.0,76.2,61.0,65.0,60.6,58.0,98,63,35,0.00,40.00,9,3,14,0.00
2012-8-24,89.0,75.2,61.0,65.0,60.7,58.0,92,64,38,0.00,40.00,14,6,22,0.00
2012-8-25,77.0,68.7,59.0,69.0,53.4,46.0,99,62,35,0.00,40.00,19,10,30,0.00
2012-8-26,79.0,67.0,52.0,58.0,52.3,48.0,93,62,41,0.00,40.00,19,-12,31,0.00
2012-8-27,84.0,68.9,53.0,61.0,55.5,53.0,99,68,37,0.00,40.00,6,2,11,0.00
2012-8-28,90.0,73.6,58.0,63.0,59.6,56.0,98,66,36,0.00,40.00,11,4,17,0.00
2012-8-29,95.0,79.5,63.0,71.0,64.8,63.0,99,66,35,0.00,40.00,24,8,42,0.00
2012-8-30,81.0,71.6,59.0,74.0,54.0,43.0,99,58,26,0.00,40.00,19,8,29,0.00
2012-8-31,86.0,70.4,53.0,54.0,48.8,46.0,86,52,26,0.00,40.00,8,4,12,0.00
2012-9-1,87.0,75.2,65.0,57.0,54.8,50.0,74,52,33,0.00,40.00,22,12,38,0.00
2012-9-2,85.0,74.6,68.0,69.0,60.7,54.0,87,63,47,0.00,40.00,21,11,42,0.00
2012-9-3,84.0,66.7,56.0,62.0,55.9,50.0,95,71,39,0.00,40.00,24,7,35,0.00
2012-9-4,84.0,67.4,51.0,61.0,52.6,46.0,99,67,27,0.00,40.00,17,5,23,0.00
2012-9-5,75.0,64.6,53.0,53.0,49.2,47.0,90,59,38,0.00,40.00,18,8,28,0.00
2012-9-6,68.0,58.0,52.0,59.0,54.3,49.0,99,88,58,0.00,40.00,9,4,15,0.00
2012-9-7,69.0,58.4,51.0,52.0,47.3,42.0,98,70,41,0.00,40.00,18,9,25,0.00
2012-9-8,65.0,57.9,49.0,51.0,46.6,44.0,92,69,47,0.00,40.00,27,14,43,0.00
2012-9-9,75.0,57.8,40.0,51.0,41.9,37.0,99,64,27,0.00,40.00,12,6,21,0.00
2012-9-10,87.0,69.2,57.0,51.0,46.1,38.0,64,46,27,0.00,40.00,19,11,29,0.00
2012-9-11,76.0,66.9,55.0,54.0,44.5,32.0,79,48,26,0.00,40.00,22,10,34,0.00
2012-9-12,71.0,58.5,45.0,43.0,35.1,25.0,72,46,21,0.00,40.00,29,14,46,0.00
2012-9-13,69.0,54.1,41.0,42.0,36.5,32.0,80,55,31,0.00,40.00,17,6,26,0.00
2012-9-14,75.0,54.0,33.0,40.0,33.5,-99.9,99,57,23,0.00,40.00,7,-18,13,0.00
2012-9-15,83.0,64.7,49.0,47.0,40.7,32.0,66,44,26,0.00,40.00,13,8,21,0.00
2012-9-16,60.0,54.9,44.0,50.0,43.2,35.0,91,66,51,0.00,40.00,20,12,26,0.00
2012-9-17,55.0,46.7,38.0,46.0,39.2,35.0,96,77,50,0.00,40.00,19,7,27,0.00
2012-9-18,61.0,47.6,36.0,42.0,37.0,32.0,99,72,36,0.00,40.00,16,8,27,0.00
2012-9-19,63.0,57.1,47.0,48.0,41.9,35.0,79,58,41,0.00,40.00,26,16,42,0.00
2012-9-20,63.0,51.4,38.0,43.0,38.9,34.0,85,65,42,0.00,40.00,19,-13,29,0.00
2012-9-21,62.0,47.7,38.0,45.0,36.3,23.0,99,69,33,0.00,40.00,29,12,46,0.00
2012-9-22,56.0,42.5,28.0,35.0,30.0,-99.9,99,66,39,0.00,40.00,18,9,29,0.00
2012-9-23,62.0,44.8,25.0,36.0,29.1,23.0,98,60,28,0.00,40.00,8,4,15,0.00
2012-9-24,72.0,56.9,45.0,46.0,34.6,25.0,63,44,34,0.00,40.00,18,11,28,0.00
2012-9-25,59.0,45.3,31.0,39.0,35.0,31.0,99,71,43,0.00,40.00,12,6,17,0.00
2012-9-26,66.0,47.2,29.0,39.0,33.3,29.0,99,65,32,0.00,40.00,7,3,12,0.00
2012-9-27,75.0,57.6,40.0,41.0,35.4,29.0,71,46,29,0.00,40.00,14,8,24,0.00
2012-9-28,80.0,61.2,45.0,48.0,39.2,31.0,68,46,32,0.00,40.00,10,4,16,0.00
2012-9-29,84.0,66.1,47.0,49.0,41.9,35.0,90,50,20,0.00,40.00,12,5,22,0.00
2012-9-30,83.0,66.8,53.0,53.0,43.3,35.0,55,43,31,0.00,40.00,18,10,29,0.00
2012-10-1,69.0,58.2,49.0,47.0,40.8,32.0,83,55,32,0.00,40.00,17,9,26,0.00
2012-10-2,78.0,59.3,45.0,46.0,39.3,33.0,64,50,30,0.00,40.00,29,13,43,0.00
2012-10-3,55.0,46.8,41.0,48.0,43.6,39.0,99,89,67,0.00,40.00,27,-9,37,0.00
2012-10-4,41.0,35.8,33.0,41.0,34.8,32.0,99,96,86,0.00,40.00,30,24,43,0.00
2012-10-5,36.0,34.2,33.0,35.0,32.9,30.0,99,95,87,0.00,40.00,27,19,37,0.00
2012-10-6,47.0,36.1,27.0,35.0,29.1,25.0,99,78,44,0.00,40.00,15,8,19,0.00
2012-10-7,56.0,42.1,31.0,38.0,29.6,26.0,87,64,34,0.00,40.00,17,8,24,0.00
2012-10-8,49.0,42.5,39.0,46.0,40.3,36.0,99,92,82,0.00,40.00,17,7,22,0.00
2012-10-9,41.0,37.0,32.0,37.0,33.2,27.0,99,86,57,0.00,40.00,24,12,32,0.00
2012-10-10,45.0,35.8,29.0,38.0,32.8,28.0,99,90,56,0.00,40.00,9,5,15,0.00
2012-10-11,44.0,35.8,28.0,35.0,27.9,23.0,99,75,44,0.00,40.00,18,8,24,0.00
2012-10-12,51.0,38.3,29.0,30.0,24.7,20.0,89,63,30,0.00,40.00,23,12,40,0.00
2012-10-13,58.0,46.7,40.0,38.0,31.6,20.0,90,58,39,0.00,40.00,18,-11,25,0.00
2012-10-14,52.0,40.5,31.0,39.0,36.8,31.0,99,88,57,0.00,40.00,16,8,21,0.00
2012-10-15,62.0,48.8,36.0,40.0,38.4,35.0,96,72,44,0.00,40.00,19,11,27,0.00
2012-10-16,69.0,56.8,42.0,48.0,45.0,38.0,99,67,45,0.00,40.00,11,5,15,0.00
2012-10-17,58.0,51.3,47.0,53.0,49.2,46.0,99,93,67,0.00,40.00,23,12,35,0.00
2012-10-18,50.0,45.7,41.0,50.0,45.3,41.0,99,99,99,0.00,40.00,34,21,51,0.00
2012-10-19,42.0,40.8,40.0,42.0,40.4,39.0,99,98,94,0.00,40.00,29,15,40,0.00
2012-10-20,51.0,44.5,40.0,46.0,42.2,40.0,99,92,79,0.00,40.00,19,10,27,0.00
2012-10-21,50.0,46.0,39.0,50.0,44.0,38.0,99,93,79,0.00,40.00,21,9,29,0.00
2012-10-22,45.0,40.7,36.0,43.0,38.9,36.0,99,93,84,0.00,40.00,14,7,19,0.00
2012-10-23,52.0,47.7,44.0,51.0,47.3,41.0,99,98,88,0.00,40.00,17,8,24,0.00
2012-10-24,48.0,39.9,34.0,47.0,36.2,28.0,96,86,76,0.00,40.00,18,10,24,0.00
2012-10-25,39.0,34.9,31.0,30.0,27.6,24.0,95,76,55,0.00,40.00,24,14,34,0.00
2012-10-26,36.0,32.1,28.0,28.0,23.5,18.0,93,71,48,0.00,40.00,22,14,35,0.00
2012-10-27,32.0,28.7,22.0,26.0,20.0,12.0,97,72,44,0.00,40.00,11,5,13,0.00
2012-10-28,37.0,28.4,19.0,30.0,24.3,18.0,99,86,61,0.00,40.00,9,5,16,0.00
2012-10-29,50.0,39.0,30.0,35.0,31.8,28.0,98,77,51,0.00,40.00,14,8,21,0.00
2012-10-30,46.0,40.8,35.0,32.0,30.0,28.0,79,66,50,0.00,40.00,14,9,22,0.00
2012-10-31,48.0,41.9,36.0,40.0,35.0,33.0,99,78,63,0.00,40.00,20,10,30,0.00
2012-11-1,35.0,30.3,28.0,33.0,24.9,22.0,93,80,72,0.00,40.00,19,12,29,0.00
2012-11-2,33.0,30.1,28.0,31.0,28.1,25.0,99,92,85,0.00,40.00,7,4,12,0.00
2012-11-3,35.0,31.2,29.0,34.0,30.8,29.0,99,99,98,0.00,40.00,9,4,11,0.00
2012-11-4,33.0,30.9,29.0,32.0,30.6,29.0,99,98,95,0.00,40.00,6,2,7,0.00
2012-11-5,40.0,34.7,30.0,38.0,33.3,30.0,99,95,79,0.00,40.00,19,8,28,0.00
2012-11-6,42.0,39.2,35.0,40.0,37.5,34.0,99,93,87,0.00,40.00,24,13,34,0.00
2012-11-7,44.0,38.9,31.0,38.0,35.3,31.0,99,88,72,0.00,40.00,18,8,26,0.00
2012-11-8,44.0,37.6,30.0,39.0,34.0,26.0,96,87,77,0.00,40.00,22,15,33,0.00
2012-11-9,33.0,30.1,27.0,30.0,27.1,25.0,97,88,81,0.00,40.00,17,12,24,0.00
2012-11-10,32.0,31.6,28.0,32.0,31.5,27.0,99,99,96,0.00,40.00,11,3,15,0.00
2012-11-11,27.0,22.4,16.0,27.0,19.6,13.0,99,89,80,0.00,40.00,2,-20,4,0.00
2012-11-12,22.0,17.3,13.0,19.0,14.2,10.0,92,88,83,0.00,40.00,2,1,3,0.00
2012-11-13,27.0,20.0,13.0,21.0,16.6,11.0,92,87,74,0.00,40.00,1,0,1,0.00
2012-11-14,36.0,24.1,12.0,36.0,22.6,-99.9,99,95,85,0.00,40.00,13,4,19,0.00
2012-11-15,33.0,25.7,18.0,32.0,20.0,14.0,99,80,56,0.00,40.00,13,7,18,0.00
2012-11-16,40.0,30.1,23.0,23.0,19.8,18.0,86,68,42,0.00,40.00,19,13,32,0.00
2012-11-17,37.0,33.0,31.0,33.0,30.2,24.0,99,89,67,0.00,40.00,10,5,16,0.00
2012-11-18,46.0,34.3,23.0,39.0,31.6,22.0,99,91,74,0.00,40.00,11,4,16,0.00
2012-11-19,43.0,36.3,29.0,38.0,33.2,28.0,99,89,66,0.00,40.00,15,7,19,0.00
2012-11-20,42.0,34.0,26.0,35.0,31.2,26.0,99,90,73,0.00,40.00,14,8,21,0.00
2012-11-21,48.0,36.4,30.0,41.0,34.5,30.0,99,93,78,0.00,40.00,10,4,14,0.00
2012-11-22,32.0,23.9,13.0,31.0,21.8,9.0,99,92,79,0.00,40.00,26,20,42,0.00
2012-11-23,17.0,14.3,9.0,12.0,10.1,6.0,90,83,78,0.00,40.00,25,14,35,0.00
2012-11-24,18.0,11.4,7.0,14.0,8.9,5.0,92,90,85,0.00,40.00,15,9,24,0.00
2012-11-27,19.0,17.0,15.0,15.0,13.0,11.0,87,84,75,0.00,40.00,9,4,12,0.00
2012-11-28,33.0,22.6,15.0,28.0,19.2,11.0,91,87,80,0.00,40.00,20,8,31,0.00
2012-11-29,19.0,15.2,10.0,13.0,9.4,6.0,84,77,68,0.00,40.00,15,11,22,0.00
2012-11-30,33.0,25.9,19.0,32.0,24.4,14.0,99,94,81,0.00,40.00,18,-11,28,0.00
2012-12-1,36.0,32.1,24.0,35.0,31.5,24.0,99,97,91,0.00,40.00,18,9,29,0.00
2012-12-2,45.0,31.2,24.0,38.0,30.2,24.0,99,97,78,0.00,40.00,17,9,26,0.00
2012-12-3,44.0,35.6,17.0,40.0,29.4,10.0,99,78,69,0.00,40.00,31,17,45,0.00
2012-12-4,19.0,14.9,12.0,12.0,8.9,6.0,93,77,71,0.00,40.00,22,10,32,0.00
2012-12-5,24.0,17.4,13.0,17.0,14.1,12.0,93,87,72,0.00,40.00,17,11,28,0.00
2012-12-6,28.0,23.8,18.0,22.0,19.9,16.0,95,86,66,0.00,40.00,19,9,26,0.00
2012-12-7,17.0,12.3,8.0,16.0,9.7,5.0,96,89,79,0.00,40.00,11,6,14,0.00
2012-12-8,21.0,15.1,8.0,20.0,13.7,5.0,98,94,86,0.00,40.00,18,-12,29,0.00
2012-12-9,9.0,3.3,-1.0,8.0,1.0,-6.0,96,91,81,0.00,40.00,20,18,31,0.00
2012-12-12,18.0,10.5,6.0,15.0,8.0,3.0,91,89,86,0.00,40.00,13,10,20,0.00
2012-12-13,18.0,9.1,4.0,17.0,6.1,2.0,96,87,76,0.00,40.00,13,6,19,0.00
2012-12-14,30.0,21.3,15.0,25.0,19.5,13.0,99,93,81,0.00,40.00,15,7,22,0.00
2012-12-15,22.0,16.1,11.0,21.0,15.3,10.0,99,97,89,0.00,40.00,18,7,26,0.00
2012-12-16,23.0,20.4,17.0,22.0,19.5,15.0,99,96,93,0.00,40.00,14,9,22,0.00
2012-12-17,19.0,16.9,16.0,18.0,15.9,15.0,99,96,91,0.00,40.00,7,4,12,0.00
2012-12-18,26.0,23.3,18.0,26.0,22.9,17.0,99,98,94,0.00,40.00,6,4,9,0.00
2012-12-19,26.0,20.9,16.0,26.0,19.3,13.0,99,93,86,0.00,40.00,14,8,19,0.00
2012-12-20,16.0,8.3,-1.0,13.0,6.0,-2.0,95,91,86,0.00,40.00,12,8,18,0.00
2012-12-21,11.0,7.8,6.0,6.0,5.5,4.0,95,90,82,0.00,40.00,12,6,18,0.00
2012-12-22,14.0,8.2,3.0,10.0,5.7,0.0,92,89,82,0.00,40.00,21,12,29,0.00
2012-12-23,2.0,-0.9,-5.0,0.0,-3.4,-7.0,92,89,86,0.00,40.00,16,10,22,0.00
2012-12-24,-2.0,-5.5,-10.0,-6.0,-8.9,-12.0,89,85,81,0.00,40.00,16,9,22,0.00
2012-12-25,0.0,-6.8,-13.0,-6.0,-10.7,-16.0,89,83,70,0.00,40.00,11,6,14,0.00
2012-12-26,14.0,5.0,-2.0,6.0,1.2,-6.0,91,85,69,0.00,40.00,7,3,9,0.00
2012-12-27,18.0,12.1,9.0,12.0,8.7,6.0,95,86,71,0.00,40.00,6,-18,9,0.00
2012-12-28,16.0,10.9,7.0,13.0,9.5,6.0,97,94,86,0.00,40.00,9,5,13,0.00
2012-12-29,12.0,4.7,-7.0,9.0,1.4,-9.0,94,86,73,0.00,40.00,14,7,18,0.00
2012-12-30,23.0,11.0,4.0,21.0,8.2,-1.0,92,88,80,0.00,40.00,19,10,27,0.00
2012-12-31,7.0,-2.1,-11.0,-1.0,-6.0,-13.0,90,84,68,0.00,40.00,12,5,17,0.00
2013-1-1,18.0,5.8,-7.0,16.0,4.0,-9.0,96,92,89,0.00,40.00,12,8,19,0.00